sensor_id;sensor_type;location;lat;lon;timestamp;temperature;humidity
25450;DHT22;13371;52.080;5.624;2023-05-10T00:01:11;17.80;99.90
25450;DHT22;13371;52.080;5.624;2023-05-10T00:03:36;17.80;99.90
25450;DHT22;13371;52.080;5.624;2023-05-10T00:06:02;17.70;99.90
25450;DHT22;13371;52.080;5.624;2023-05-10T00:08:28;17.70;99.90
25450;DHT22;13371;52.080;5.624;2023-05-10T00:10:53;17.50;99.90
25450;DHT22;13371;52.080;5.624;2023-05-10T00:13:19;17.70;99.90
25450;DHT22;13371;52.080;5.624;2023-05-10T00:15:44;17.70;99.90
25450;DHT22;13371;52.080;5.624;2023-05-10T00:18:10;17.70;99.90
25450;DHT22;13371;52.080;5.624;2023-05-10T00:20:36;17.70;99.90
25450;DHT22;13371;52.080;5.624;2023-05-10T00:23:01;17.70;99.90
25450;DHT22;13371;52.080;5.624;2023-05-10T00:25:27;17.60;99.90
25450;DHT22;13371;52.080;5.624;2023-05-10T00:27:53;17.50;99.90
25450;DHT22;13371;52.080;5.624;2023-05-10T00:30:20;17.50;99.90
25450;DHT22;13371;52.080;5.624;2023-05-10T00:32:46;17.60;99.90
25450;DHT22;13371;52.080;5.624;2023-05-10T00:35:13;17.70;99.90
25450;DHT22;13371;52.080;5.624;2023-05-10T00:37:39;17.70;99.90
25450;DHT22;13371;52.080;5.624;2023-05-10T00:40:05;17.70;99.90
25450;DHT22;13371;52.080;5.624;2023-05-10T00:42:31;17.70;99.90
25450;DHT22;13371;52.080;5.624;2023-05-10T00:44:56;17.70;99.90
25450;DHT22;13371;52.080;5.624;2023-05-10T00:47:23;17.70;99.90
25450;DHT22;13371;52.080;5.624;2023-05-10T00:49:48;17.70;99.90
25450;DHT22;13371;52.080;5.624;2023-05-10T00:52:14;17.60;99.90
25450;DHT22;13371;52.080;5.624;2023-05-10T00:54:40;17.70;99.90
25450;DHT22;13371;52.080;5.624;2023-05-10T00:57:06;17.70;99.90
25450;DHT22;13371;52.080;5.624;2023-05-10T00:59:32;17.70;99.90
25450;DHT22;13371;52.080;5.624;2023-05-10T01:01:57;17.70;99.90
25450;DHT22;13371;52.080;5.624;2023-05-10T01:04:23;17.70;99.90
25450;DHT22;13371;52.080;5.624;2023-05-10T01:06:52;17.70;99.90
25450;DHT22;13371;52.080;5.624;2023-05-10T01:09:19;17.70;99.90
25450;DHT22;13371;52.080;5.624;2023-05-10T01:11:45;17.80;99.90
25450;DHT22;13371;52.080;5.624;2023-05-10T01:14:11;17.70;99.90
25450;DHT22;13371;52.080;5.624;2023-05-10T01:16:38;17.50;99.90
25450;DHT22;13371;52.080;5.624;2023-05-10T01:19:11;17.50;99.90
25450;DHT22;13371;52.080;5.624;2023-05-10T01:25:11;17.60;99.90
25450;DHT22;13371;52.080;5.624;2023-05-10T01:38:27;16.60;99.90
25450;DHT22;13371;52.080;5.624;2023-05-10T01:41:14;16.90;99.90
25450;DHT22;13371;52.080;5.624;2023-05-10T01:44:11;16.90;99.90
25450;DHT22;13371;52.080;5.624;2023-05-10T01:46:42;17.00;99.90
25450;DHT22;13371;52.080;5.624;2023-05-10T01:49:13;17.00;99.90
25450;DHT22;13371;52.080;5.624;2023-05-10T01:51:50;16.70;99.90
25450;DHT22;13371;52.080;5.624;2023-05-10T01:54:19;16.90;99.90
25450;DHT22;13371;52.080;5.624;2023-05-10T01:56:48;17.00;99.90
25450;DHT22;13371;52.080;5.624;2023-05-10T01:59:18;17.20;99.90
25450;DHT22;13371;52.080;5.624;2023-05-10T02:01:45;17.10;99.90
25450;DHT22;13371;52.080;5.624;2023-05-10T02:04:15;16.90;99.90
25450;DHT22;13371;52.080;5.624;2023-05-10T02:06:42;17.00;99.90
25450;DHT22;13371;52.080;5.624;2023-05-10T02:09:09;16.90;99.90
25450;DHT22;13371;52.080;5.624;2023-05-10T02:11:41;16.90;99.90
25450;DHT22;13371;52.080;5.624;2023-05-10T02:14:09;17.10;99.90
25450;DHT22;13371;52.080;5.624;2023-05-10T02:16:36;17.20;99.90
25450;DHT22;13371;52.080;5.624;2023-05-10T02:19:03;17.10;99.90
25450;DHT22;13371;52.080;5.624;2023-05-10T02:21:30;16.90;99.90
25450;DHT22;13371;52.080;5.624;2023-05-10T02:23:57;16.90;99.90
25450;DHT22;13371;52.080;5.624;2023-05-10T02:26:24;17.00;99.90
25450;DHT22;13371;52.080;5.624;2023-05-10T02:28:51;17.00;99.90
25450;DHT22;13371;52.080;5.624;2023-05-10T02:31:19;17.00;99.90
25450;DHT22;13371;52.080;5.624;2023-05-10T02:33:45;16.90;99.90
25450;DHT22;13371;52.080;5.624;2023-05-10T02:36:12;16.80;99.90
25450;DHT22;13371;52.080;5.624;2023-05-10T02:38:39;16.90;99.90
25450;DHT22;13371;52.080;5.624;2023-05-10T02:41:06;16.80;99.90
25450;DHT22;13371;52.080;5.624;2023-05-10T02:43:33;16.60;99.90
25450;DHT22;13371;52.080;5.624;2023-05-10T02:45:59;16.80;99.90
25450;DHT22;13371;52.080;5.624;2023-05-10T02:48:25;17.00;99.90
25450;DHT22;13371;52.080;5.624;2023-05-10T02:50:52;17.10;99.90
25450;DHT22;13371;52.080;5.624;2023-05-10T02:53:22;16.90;99.90
25450;DHT22;13371;52.080;5.624;2023-05-10T02:55:50;16.80;99.90
25450;DHT22;13371;52.080;5.624;2023-05-10T02:58:17;16.80;99.90
25450;DHT22;13371;52.080;5.624;2023-05-10T03:00:44;16.70;99.90
25450;DHT22;13371;52.080;5.624;2023-05-10T03:03:11;16.70;99.90
25450;DHT22;13371;52.080;5.624;2023-05-10T03:05:37;16.80;99.90
25450;DHT22;13371;52.080;5.624;2023-05-10T03:08:02;16.70;99.90
25450;DHT22;13371;52.080;5.624;2023-05-10T03:10:30;16.70;99.90
25450;DHT22;13371;52.080;5.624;2023-05-10T03:13:02;16.70;99.90
25450;DHT22;13371;52.080;5.624;2023-05-10T03:15:59;16.60;99.90
25450;DHT22;13371;52.080;5.624;2023-05-10T03:18:32;16.40;99.90
25450;DHT22;13371;52.080;5.624;2023-05-10T03:21:03;16.30;99.90
25450;DHT22;13371;52.080;5.624;2023-05-10T03:23:50;16.40;99.90
25450;DHT22;13371;52.080;5.624;2023-05-10T03:26:20;16.40;99.90
25450;DHT22;13371;52.080;5.624;2023-05-10T03:28:47;16.50;99.90
25450;DHT22;13371;52.080;5.624;2023-05-10T03:31:14;16.40;99.90
25450;DHT22;13371;52.080;5.624;2023-05-10T03:33:47;16.60;99.90
25450;DHT22;13371;52.080;5.624;2023-05-10T03:36:13;16.50;99.90
25450;DHT22;13371;52.080;5.624;2023-05-10T03:38:39;16.30;99.90
25450;DHT22;13371;52.080;5.624;2023-05-10T03:41:04;16.40;99.90
25450;DHT22;13371;52.080;5.624;2023-05-10T03:43:30;16.10;99.90
25450;DHT22;13371;52.080;5.624;2023-05-10T03:45:55;15.90;99.90
25450;DHT22;13371;52.080;5.624;2023-05-10T03:48:21;15.80;99.90
25450;DHT22;13371;52.080;5.624;2023-05-10T03:50:46;15.80;99.90
25450;DHT22;13371;52.080;5.624;2023-05-10T03:53:12;15.60;99.90
25450;DHT22;13371;52.080;5.624;2023-05-10T03:55:38;15.80;99.90
25450;DHT22;13371;52.080;5.624;2023-05-10T03:58:03;15.70;99.90
25450;DHT22;13371;52.080;5.624;2023-05-10T04:00:29;15.80;99.90
25450;DHT22;13371;52.080;5.624;2023-05-10T04:02:55;16.10;99.90
25450;DHT22;13371;52.080;5.624;2023-05-10T04:05:20;16.20;99.90
25450;DHT22;13371;52.080;5.624;2023-05-10T04:07:46;16.00;99.90
25450;DHT22;13371;52.080;5.624;2023-05-10T04:10:14;16.00;99.90
25450;DHT22;13371;52.080;5.624;2023-05-10T04:12:41;15.90;99.90
25450;DHT22;13371;52.080;5.624;2023-05-10T04:15:07;16.10;99.90
25450;DHT22;13371;52.080;5.624;2023-05-10T04:17:33;15.90;99.90
25450;DHT22;13371;52.080;5.624;2023-05-10T04:19:59;16.00;99.90
25450;DHT22;13371;52.080;5.624;2023-05-10T04:22:24;16.00;99.90
25450;DHT22;13371;52.080;5.624;2023-05-10T04:24:50;16.20;99.90
25450;DHT22;13371;52.080;5.624;2023-05-10T04:27:15;16.00;99.90
25450;DHT22;13371;52.080;5.624;2023-05-10T04:29:41;16.10;99.90
25450;DHT22;13371;52.080;5.624;2023-05-10T04:32:07;16.10;99.90
25450;DHT22;13371;52.080;5.624;2023-05-10T04:34:33;16.20;99.90
25450;DHT22;13371;52.080;5.624;2023-05-10T04:36:59;16.20;99.90
25450;DHT22;13371;52.080;5.624;2023-05-10T04:39:25;16.10;99.90
25450;DHT22;13371;52.080;5.624;2023-05-10T04:41:50;16.20;99.90
25450;DHT22;13371;52.080;5.624;2023-05-10T04:44:16;16.10;99.90
25450;DHT22;13371;52.080;5.624;2023-05-10T04:46:41;16.00;99.90
25450;DHT22;13371;52.080;5.624;2023-05-10T04:49:07;16.20;99.90
25450;DHT22;13371;52.080;5.624;2023-05-10T04:51:32;16.00;99.90
25450;DHT22;13371;52.080;5.624;2023-05-10T04:53:58;16.00;99.90
25450;DHT22;13371;52.080;5.624;2023-05-10T04:56:24;16.20;99.90
25450;DHT22;13371;52.080;5.624;2023-05-10T04:58:49;16.20;99.90
25450;DHT22;13371;52.080;5.624;2023-05-10T05:01:15;16.30;99.90
25450;DHT22;13371;52.080;5.624;2023-05-10T05:03:40;16.20;99.90
25450;DHT22;13371;52.080;5.624;2023-05-10T05:06:09;16.30;99.90
25450;DHT22;13371;52.080;5.624;2023-05-10T05:08:35;16.30;99.90
25450;DHT22;13371;52.080;5.624;2023-05-10T05:11:00;16.40;99.90
25450;DHT22;13371;52.080;5.624;2023-05-10T05:13:29;16.20;99.90
25450;DHT22;13371;52.080;5.624;2023-05-10T05:15:54;16.30;99.90
25450;DHT22;13371;52.080;5.624;2023-05-10T05:18:20;16.10;99.90
25450;DHT22;13371;52.080;5.624;2023-05-10T05:20:46;16.20;99.90
25450;DHT22;13371;52.080;5.624;2023-05-10T05:23:11;16.30;99.90
25450;DHT22;13371;52.080;5.624;2023-05-10T05:25:37;16.20;99.90
25450;DHT22;13371;52.080;5.624;2023-05-10T05:28:02;16.30;99.90
25450;DHT22;13371;52.080;5.624;2023-05-10T05:30:28;16.50;99.90
25450;DHT22;13371;52.080;5.624;2023-05-10T05:32:56;16.50;99.90
25450;DHT22;13371;52.080;5.624;2023-05-10T05:35:22;16.40;99.90
25450;DHT22;13371;52.080;5.624;2023-05-10T05:37:47;16.10;99.90
25450;DHT22;13371;52.080;5.624;2023-05-10T05:40:13;16.20;99.90
25450;DHT22;13371;52.080;5.624;2023-05-10T05:42:42;16.30;99.90
25450;DHT22;13371;52.080;5.624;2023-05-10T05:45:08;16.30;99.90
25450;DHT22;13371;52.080;5.624;2023-05-10T05:47:38;16.40;99.90
25450;DHT22;13371;52.080;5.624;2023-05-10T05:50:04;16.60;99.90
25450;DHT22;13371;52.080;5.624;2023-05-10T05:52:30;16.70;99.90
25450;DHT22;13371;52.080;5.624;2023-05-10T05:54:55;16.50;99.90
25450;DHT22;13371;52.080;5.624;2023-05-10T05:57:21;16.20;99.90
25450;DHT22;13371;52.080;5.624;2023-05-10T05:59:47;16.30;99.90
25450;DHT22;13371;52.080;5.624;2023-05-10T06:02:12;16.30;99.90
25450;DHT22;13371;52.080;5.624;2023-05-10T06:04:38;16.10;99.90
25450;DHT22;13371;52.080;5.624;2023-05-10T06:07:06;16.10;99.90
25450;DHT22;13371;52.080;5.624;2023-05-10T06:09:31;16.10;99.90
25450;DHT22;13371;52.080;5.624;2023-05-10T06:11:57;16.10;99.90
25450;DHT22;13371;52.080;5.624;2023-05-10T06:14:23;16.20;99.90
25450;DHT22;13371;52.080;5.624;2023-05-10T06:16:48;16.10;99.90
25450;DHT22;13371;52.080;5.624;2023-05-10T06:19:14;16.10;99.90
25450;DHT22;13371;52.080;5.624;2023-05-10T06:21:39;16.20;99.90
25450;DHT22;13371;52.080;5.624;2023-05-10T06:24:05;16.50;99.90
25450;DHT22;13371;52.080;5.624;2023-05-10T06:26:32;16.60;99.90
25450;DHT22;13371;52.080;5.624;2023-05-10T06:28:58;16.70;99.90
25450;DHT22;13371;52.080;5.624;2023-05-10T06:31:23;16.70;99.90
25450;DHT22;13371;52.080;5.624;2023-05-10T06:33:49;16.30;99.90
25450;DHT22;13371;52.080;5.624;2023-05-10T06:36:14;16.30;99.90
25450;DHT22;13371;52.080;5.624;2023-05-10T06:38:40;16.50;99.90
25450;DHT22;13371;52.080;5.624;2023-05-10T06:41:06;16.60;99.90
25450;DHT22;13371;52.080;5.624;2023-05-10T06:43:31;16.40;99.90
25450;DHT22;13371;52.080;5.624;2023-05-10T06:45:57;16.40;99.90
25450;DHT22;13371;52.080;5.624;2023-05-10T06:48:23;16.50;99.90
25450;DHT22;13371;52.080;5.624;2023-05-10T06:50:49;16.60;99.90
25450;DHT22;13371;52.080;5.624;2023-05-10T06:53:14;16.60;99.90
25450;DHT22;13371;52.080;5.624;2023-05-10T06:55:40;16.40;99.90
25450;DHT22;13371;52.080;5.624;2023-05-10T06:58:06;16.40;99.90
25450;DHT22;13371;52.080;5.624;2023-05-10T07:00:31;16.40;99.90
25450;DHT22;13371;52.080;5.624;2023-05-10T07:02:57;16.40;99.90
25450;DHT22;13371;52.080;5.624;2023-05-10T07:05:23;16.60;99.90
25450;DHT22;13371;52.080;5.624;2023-05-10T07:07:49;16.80;99.90
25450;DHT22;13371;52.080;5.624;2023-05-10T07:10:15;16.80;99.90
25450;DHT22;13371;52.080;5.624;2023-05-10T07:12:40;16.70;99.90
25450;DHT22;13371;52.080;5.624;2023-05-10T07:15:06;16.60;99.90
25450;DHT22;13371;52.080;5.624;2023-05-10T07:17:32;16.80;99.90
25450;DHT22;13371;52.080;5.624;2023-05-10T07:19:59;16.80;99.90
25450;DHT22;13371;52.080;5.624;2023-05-10T07:22:25;17.00;99.90
25450;DHT22;13371;52.080;5.624;2023-05-10T07:24:50;16.80;99.90
25450;DHT22;13371;52.080;5.624;2023-05-10T07:27:16;16.80;99.90
25450;DHT22;13371;52.080;5.624;2023-05-10T07:29:42;16.60;99.90
25450;DHT22;13371;52.080;5.624;2023-05-10T07:32:07;16.50;99.90
25450;DHT22;13371;52.080;5.624;2023-05-10T07:34:33;16.50;99.90
25450;DHT22;13371;52.080;5.624;2023-05-10T07:36:59;16.70;99.90
25450;DHT22;13371;52.080;5.624;2023-05-10T07:39:25;17.00;99.90
25450;DHT22;13371;52.080;5.624;2023-05-10T07:41:51;16.80;99.90
25450;DHT22;13371;52.080;5.624;2023-05-10T07:44:16;16.90;99.90
25450;DHT22;13371;52.080;5.624;2023-05-10T07:46:44;16.80;99.90
25450;DHT22;13371;52.080;5.624;2023-05-10T07:49:10;16.70;99.90
25450;DHT22;13371;52.080;5.624;2023-05-10T07:51:35;16.90;99.90
25450;DHT22;13371;52.080;5.624;2023-05-10T07:54:01;16.90;99.90
25450;DHT22;13371;52.080;5.624;2023-05-10T07:56:29;17.00;99.90
25450;DHT22;13371;52.080;5.624;2023-05-10T07:58:56;17.10;99.90
25450;DHT22;13371;52.080;5.624;2023-05-10T08:01:22;17.00;99.90
25450;DHT22;13371;52.080;5.624;2023-05-10T08:03:48;16.60;99.90
25450;DHT22;13371;52.080;5.624;2023-05-10T08:06:14;16.50;99.90
25450;DHT22;13371;52.080;5.624;2023-05-10T08:08:41;16.80;99.90
25450;DHT22;13371;52.080;5.624;2023-05-10T08:11:06;16.40;99.90
25450;DHT22;13371;52.080;5.624;2023-05-10T08:13:32;16.20;99.90
25450;DHT22;13371;52.080;5.624;2023-05-10T08:15:58;16.40;99.90
25450;DHT22;13371;52.080;5.624;2023-05-10T08:18:23;16.50;99.90
25450;DHT22;13371;52.080;5.624;2023-05-10T08:20:49;16.50;99.90
25450;DHT22;13371;52.080;5.624;2023-05-10T08:23:14;16.60;99.90
25450;DHT22;13371;52.080;5.624;2023-05-10T08:25:41;16.60;99.90
25450;DHT22;13371;52.080;5.624;2023-05-10T08:28:06;16.70;99.90
25450;DHT22;13371;52.080;5.624;2023-05-10T08:30:32;16.80;99.90
25450;DHT22;13371;52.080;5.624;2023-05-10T08:32:57;16.70;99.90
25450;DHT22;13371;52.080;5.624;2023-05-10T08:35:23;16.80;99.90
25450;DHT22;13371;52.080;5.624;2023-05-10T08:37:50;16.90;99.90
25450;DHT22;13371;52.080;5.624;2023-05-10T08:40:16;16.90;99.90
25450;DHT22;13371;52.080;5.624;2023-05-10T08:43:05;16.90;99.90
25450;DHT22;13371;52.080;5.624;2023-05-10T08:45:33;16.80;99.90
25450;DHT22;13371;52.080;5.624;2023-05-10T08:48:02;16.90;99.90
25450;DHT22;13371;52.080;5.624;2023-05-10T08:50:27;17.00;99.90
25450;DHT22;13371;52.080;5.624;2023-05-10T08:52:59;17.30;99.90
25450;DHT22;13371;52.080;5.624;2023-05-10T08:55:25;17.50;99.90
25450;DHT22;13371;52.080;5.624;2023-05-10T08:57:51;17.70;99.90
25450;DHT22;13371;52.080;5.624;2023-05-10T09:00:17;17.50;99.90
25450;DHT22;13371;52.080;5.624;2023-05-10T09:02:43;17.30;99.90
25450;DHT22;13371;52.080;5.624;2023-05-10T09:05:11;17.40;99.90
25450;DHT22;13371;52.080;5.624;2023-05-10T09:07:37;17.60;99.90
25450;DHT22;13371;52.080;5.624;2023-05-10T09:10:04;17.40;99.90
25450;DHT22;13371;52.080;5.624;2023-05-10T09:12:30;17.60;99.90
25450;DHT22;13371;52.080;5.624;2023-05-10T09:14:56;17.50;99.90
25450;DHT22;13371;52.080;5.624;2023-05-10T09:17:24;17.50;99.90
25450;DHT22;13371;52.080;5.624;2023-05-10T09:19:58;17.20;99.90
25450;DHT22;13371;52.080;5.624;2023-05-10T09:22:24;17.40;99.90
25450;DHT22;13371;52.080;5.624;2023-05-10T09:25:11;17.30;99.90
25450;DHT22;13371;52.080;5.624;2023-05-10T09:27:38;17.00;99.90
25450;DHT22;13371;52.080;5.624;2023-05-10T09:30:05;17.00;99.90
25450;DHT22;13371;52.080;5.624;2023-05-10T09:32:45;17.10;99.90
25450;DHT22;13371;52.080;5.624;2023-05-10T09:35:14;17.40;99.90
25450;DHT22;13371;52.080;5.624;2023-05-10T09:37:46;16.90;99.90
25450;DHT22;13371;52.080;5.624;2023-05-10T09:40:14;17.10;99.90
25450;DHT22;13371;52.080;5.624;2023-05-10T09:42:42;17.10;99.90
25450;DHT22;13371;52.080;5.624;2023-05-10T09:45:08;17.30;99.90
25450;DHT22;13371;52.080;5.624;2023-05-10T09:47:34;17.20;99.90
25450;DHT22;13371;52.080;5.624;2023-05-10T09:50:04;17.50;99.90
25450;DHT22;13371;52.080;5.624;2023-05-10T09:55:14;17.90;99.90
25450;DHT22;13371;52.080;5.624;2023-05-10T09:57:40;18.40;99.90
25450;DHT22;13371;52.080;5.624;2023-05-10T10:00:06;18.40;99.90
25450;DHT22;13371;52.080;5.624;2023-05-10T10:02:33;18.00;99.10
25450;DHT22;13371;52.080;5.624;2023-05-10T10:05:01;17.60;99.60
25450;DHT22;13371;52.080;5.624;2023-05-10T10:07:27;17.70;99.90
25450;DHT22;13371;52.080;5.624;2023-05-10T10:09:53;17.80;99.80
25450;DHT22;13371;52.080;5.624;2023-05-10T10:12:19;18.20;99.90
25450;DHT22;13371;52.080;5.624;2023-05-10T10:14:48;18.20;99.80
25450;DHT22;13371;52.080;5.624;2023-05-10T10:17:21;18.30;99.50
25450;DHT22;13371;52.080;5.624;2023-05-10T10:19:55;18.50;99.00
25450;DHT22;13371;52.080;5.624;2023-05-10T10:22:40;18.90;99.90
25450;DHT22;13371;52.080;5.624;2023-05-10T10:25:14;18.90;98.90
25450;DHT22;13371;52.080;5.624;2023-05-10T10:30:23;19.00;98.80
25450;DHT22;13371;52.080;5.624;2023-05-10T10:33:10;19.20;98.90
25450;DHT22;13371;52.080;5.624;2023-05-10T10:35:39;19.40;98.60
25450;DHT22;13371;52.080;5.624;2023-05-10T10:38:08;19.30;97.70
25450;DHT22;13371;52.080;5.624;2023-05-10T10:40:34;18.90;96.90
25450;DHT22;13371;52.080;5.624;2023-05-10T10:43:22;18.70;96.50
25450;DHT22;13371;52.080;5.624;2023-05-10T10:46:25;18.90;97.10
25450;DHT22;13371;52.080;5.624;2023-05-10T10:49:09;18.90;97.20
25450;DHT22;13371;52.080;5.624;2023-05-10T10:51:39;18.80;96.50
25450;DHT22;13371;52.080;5.624;2023-05-10T10:54:11;18.80;97.40
25450;DHT22;13371;52.080;5.624;2023-05-10T10:56:37;18.70;97.10
25450;DHT22;13371;52.080;5.624;2023-05-10T10:59:03;18.90;97.60
25450;DHT22;13371;52.080;5.624;2023-05-10T11:01:33;19.20;97.40
25450;DHT22;13371;52.080;5.624;2023-05-10T11:06:32;19.50;97.10
25450;DHT22;13371;52.080;5.624;2023-05-10T11:09:08;19.50;97.20
25450;DHT22;13371;52.080;5.624;2023-05-10T11:11:35;19.50;97.10
25450;DHT22;13371;52.080;5.624;2023-05-10T11:14:06;19.60;97.00
25450;DHT22;13371;52.080;5.624;2023-05-10T11:16:43;19.80;97.20
25450;DHT22;13371;52.080;5.624;2023-05-10T11:19:16;19.50;96.60
25450;DHT22;13371;52.080;5.624;2023-05-10T11:24:36;19.60;97.20
25450;DHT22;13371;52.080;5.624;2023-05-10T11:27:02;19.50;96.10
25450;DHT22;13371;52.080;5.624;2023-05-10T11:29:28;19.10;95.90
25450;DHT22;13371;52.080;5.624;2023-05-10T11:31:58;19.30;97.00
25450;DHT22;13371;52.080;5.624;2023-05-10T11:34:29;19.10;95.70
25450;DHT22;13371;52.080;5.624;2023-05-10T11:36:56;19.30;96.20
25450;DHT22;13371;52.080;5.624;2023-05-10T11:39:30;19.30;97.00
25450;DHT22;13371;52.080;5.624;2023-05-10T11:41:57;19.50;97.10
25450;DHT22;13371;52.080;5.624;2023-05-10T11:44:23;19.70;97.40
25450;DHT22;13371;52.080;5.624;2023-05-10T11:46:54;19.80;96.10
25450;DHT22;13371;52.080;5.624;2023-05-10T11:49:20;20.00;96.50
25450;DHT22;13371;52.080;5.624;2023-05-10T11:51:48;20.40;96.90
25450;DHT22;13371;52.080;5.624;2023-05-10T11:54:13;20.40;96.60
25450;DHT22;13371;52.080;5.624;2023-05-10T11:56:40;20.40;95.40
25450;DHT22;13371;52.080;5.624;2023-05-10T11:59:06;20.40;95.80
25450;DHT22;13371;52.080;5.624;2023-05-10T12:01:32;20.20;95.70
25450;DHT22;13371;52.080;5.624;2023-05-10T12:03:58;19.90;95.60
25450;DHT22;13371;52.080;5.624;2023-05-10T12:06:30;19.70;95.60
25450;DHT22;13371;52.080;5.624;2023-05-10T12:08:56;19.90;96.60
25450;DHT22;13371;52.080;5.624;2023-05-10T12:11:25;20.20;96.00
25450;DHT22;13371;52.080;5.624;2023-05-10T12:13:52;19.90;95.70
25450;DHT22;13371;52.080;5.624;2023-05-10T12:16:20;19.70;96.00
25450;DHT22;13371;52.080;5.624;2023-05-10T12:18:53;19.80;96.90
25450;DHT22;13371;52.080;5.624;2023-05-10T12:21:22;20.00;95.90
25450;DHT22;13371;52.080;5.624;2023-05-10T12:23:50;19.90;94.80
25450;DHT22;13371;52.080;5.624;2023-05-10T12:26:16;20.10;96.30
25450;DHT22;13371;52.080;5.624;2023-05-10T12:28:42;20.40;96.80
25450;DHT22;13371;52.080;5.624;2023-05-10T12:31:08;20.30;96.20
25450;DHT22;13371;52.080;5.624;2023-05-10T12:33:38;20.60;96.00
25450;DHT22;13371;52.080;5.624;2023-05-10T12:36:05;21.00;95.30
25450;DHT22;13371;52.080;5.624;2023-05-10T12:38:44;21.20;94.60
25450;DHT22;13371;52.080;5.624;2023-05-10T12:41:17;21.10;93.60
25450;DHT22;13371;52.080;5.624;2023-05-10T12:43:51;20.80;93.10
25450;DHT22;13371;52.080;5.624;2023-05-10T12:46:17;21.00;93.90
25450;DHT22;13371;52.080;5.624;2023-05-10T12:48:46;20.90;94.80
25450;DHT22;13371;52.080;5.624;2023-05-10T12:51:14;20.60;94.10
25450;DHT22;13371;52.080;5.624;2023-05-10T12:53:44;20.80;95.20
25450;DHT22;13371;52.080;5.624;2023-05-10T12:56:11;20.80;95.40
25450;DHT22;13371;52.080;5.624;2023-05-10T12:58:36;21.40;95.90
25450;DHT22;13371;52.080;5.624;2023-05-10T13:01:02;21.80;95.80
25450;DHT22;13371;52.080;5.624;2023-05-10T13:03:28;21.70;92.10
25450;DHT22;13371;52.080;5.624;2023-05-10T13:05:53;22.10;94.10
25450;DHT22;13371;52.080;5.624;2023-05-10T13:08:19;22.20;92.80
25450;DHT22;13371;52.080;5.624;2023-05-10T13:10:45;22.10;91.70
25450;DHT22;13371;52.080;5.624;2023-05-10T13:13:10;21.50;93.00
25450;DHT22;13371;52.080;5.624;2023-05-10T13:15:36;21.40;92.60
25450;DHT22;13371;52.080;5.624;2023-05-10T13:18:02;21.10;92.90
25450;DHT22;13371;52.080;5.624;2023-05-10T13:20:27;20.80;92.70
25450;DHT22;13371;52.080;5.624;2023-05-10T13:22:53;20.80;94.30
25450;DHT22;13371;52.080;5.624;2023-05-10T13:25:19;20.80;94.10
25450;DHT22;13371;52.080;5.624;2023-05-10T13:27:45;20.70;94.40
25450;DHT22;13371;52.080;5.624;2023-05-10T13:30:11;20.80;93.80
25450;DHT22;13371;52.080;5.624;2023-05-10T13:32:37;20.30;93.80
25450;DHT22;13371;52.080;5.624;2023-05-10T13:35:03;20.20;93.80
25450;DHT22;13371;52.080;5.624;2023-05-10T13:37:29;20.00;93.30
25450;DHT22;13371;52.080;5.624;2023-05-10T13:39:57;19.90;94.50
25450;DHT22;13371;52.080;5.624;2023-05-10T13:42:23;20.10;93.90
25450;DHT22;13371;52.080;5.624;2023-05-10T13:44:50;20.00;94.20
25450;DHT22;13371;52.080;5.624;2023-05-10T13:47:15;19.00;95.90
25450;DHT22;13371;52.080;5.624;2023-05-10T13:49:41;18.50;98.00
25450;DHT22;13371;52.080;5.624;2023-05-10T13:52:07;18.30;98.40
25450;DHT22;13371;52.080;5.624;2023-05-10T13:54:34;18.20;98.80
25450;DHT22;13371;52.080;5.624;2023-05-10T13:56:59;17.90;99.60
25450;DHT22;13371;52.080;5.624;2023-05-10T13:59:25;17.70;99.90
25450;DHT22;13371;52.080;5.624;2023-05-10T14:01:51;17.80;99.90
25450;DHT22;13371;52.080;5.624;2023-05-10T14:04:16;17.70;99.90
25450;DHT22;13371;52.080;5.624;2023-05-10T14:06:42;17.70;99.90
25450;DHT22;13371;52.080;5.624;2023-05-10T14:09:07;17.80;99.90
25450;DHT22;13371;52.080;5.624;2023-05-10T14:11:33;17.80;99.90
25450;DHT22;13371;52.080;5.624;2023-05-10T14:13:58;17.80;99.90
25450;DHT22;13371;52.080;5.624;2023-05-10T14:16:24;17.60;99.90
25450;DHT22;13371;52.080;5.624;2023-05-10T14:18:53;17.80;99.90
25450;DHT22;13371;52.080;5.624;2023-05-10T14:21:18;18.20;99.90
25450;DHT22;13371;52.080;5.624;2023-05-10T14:23:44;18.40;99.90
25450;DHT22;13371;52.080;5.624;2023-05-10T14:26:10;18.20;99.90
25450;DHT22;13371;52.080;5.624;2023-05-10T14:28:35;18.20;99.90
25450;DHT22;13371;52.080;5.624;2023-05-10T14:31:01;18.00;99.90
25450;DHT22;13371;52.080;5.624;2023-05-10T14:33:27;17.90;99.90
25450;DHT22;13371;52.080;5.624;2023-05-10T14:35:53;18.10;99.90
25450;DHT22;13371;52.080;5.624;2023-05-10T14:38:22;17.80;99.90
25450;DHT22;13371;52.080;5.624;2023-05-10T14:40:50;17.60;99.90
25450;DHT22;13371;52.080;5.624;2023-05-10T14:43:16;17.50;99.90
25450;DHT22;13371;52.080;5.624;2023-05-10T14:45:42;17.30;99.90
25450;DHT22;13371;52.080;5.624;2023-05-10T14:48:08;17.20;99.90
25450;DHT22;13371;52.080;5.624;2023-05-10T14:50:37;17.20;99.90
25450;DHT22;13371;52.080;5.624;2023-05-10T14:53:05;17.40;99.90
25450;DHT22;13371;52.080;5.624;2023-05-10T14:55:31;17.30;99.90
25450;DHT22;13371;52.080;5.624;2023-05-10T14:57:59;17.40;99.90
25450;DHT22;13371;52.080;5.624;2023-05-10T15:00:24;17.40;99.90
25450;DHT22;13371;52.080;5.624;2023-05-10T15:02:50;17.60;99.90
25450;DHT22;13371;52.080;5.624;2023-05-10T15:05:19;17.70;99.90
25450;DHT22;13371;52.080;5.624;2023-05-10T15:07:45;17.70;99.90
25450;DHT22;13371;52.080;5.624;2023-05-10T15:10:11;17.70;99.90
25450;DHT22;13371;52.080;5.624;2023-05-10T15:12:37;17.70;99.90
25450;DHT22;13371;52.080;5.624;2023-05-10T15:15:06;17.60;99.90
25450;DHT22;13371;52.080;5.624;2023-05-10T15:17:32;17.70;99.90
25450;DHT22;13371;52.080;5.624;2023-05-10T15:19:58;17.80;99.90
25450;DHT22;13371;52.080;5.624;2023-05-10T15:22:23;17.90;99.90
25450;DHT22;13371;52.080;5.624;2023-05-10T15:24:51;17.90;99.90
25450;DHT22;13371;52.080;5.624;2023-05-10T15:27:17;18.00;99.90
25450;DHT22;13371;52.080;5.624;2023-05-10T15:29:42;18.00;99.90
25450;DHT22;13371;52.080;5.624;2023-05-10T15:32:08;18.10;99.90
25450;DHT22;13371;52.080;5.624;2023-05-10T15:34:34;17.80;99.90
25450;DHT22;13371;52.080;5.624;2023-05-10T15:36:59;17.90;99.90
25450;DHT22;13371;52.080;5.624;2023-05-10T15:39:25;17.60;99.90
25450;DHT22;13371;52.080;5.624;2023-05-10T15:41:51;17.70;99.90
25450;DHT22;13371;52.080;5.624;2023-05-10T15:44:16;17.80;99.90
25450;DHT22;13371;52.080;5.624;2023-05-10T15:46:42;18.10;99.90
25450;DHT22;13371;52.080;5.624;2023-05-10T15:49:07;18.20;99.90
25450;DHT22;13371;52.080;5.624;2023-05-10T15:51:33;18.40;99.90
25450;DHT22;13371;52.080;5.624;2023-05-10T15:53:59;18.20;99.90
25450;DHT22;13371;52.080;5.624;2023-05-10T15:56:27;17.90;99.90